createdAt,value
2023-10-06T00:03:25.264Z,102265.97
2023-10-06T00:08:41.795Z,102270.56
2023-10-06T00:14:01.946Z,102253.31
2023-10-06T00:19:15.561Z,102260.22
2023-10-06T00:24:17.053Z,102272.25
2023-10-06T00:29:22.614Z,102261.06
2023-10-06T00:34:26.854Z,102254.00
2023-10-06T00:39:31.465Z,102257.59
2023-10-06T00:44:32.992Z,102249.34
2023-10-06T00:49:34.521Z,102244.91
2023-10-06T00:54:36.207Z,102244.22
2023-10-06T00:59:37.739Z,102238.53
2023-10-06T01:04:46.995Z,102215.31
2023-10-06T01:09:57.357Z,102231.63
2023-10-06T01:15:17.393Z,102236.44
2023-10-06T01:20:34.228Z,102231.13
2023-10-06T01:25:36.411Z,102218.38
2023-10-06T01:30:38.066Z,102221.84
2023-10-06T01:35:43.923Z,102230.59
2023-10-06T01:40:46.861Z,102223.50
2023-10-06T01:45:48.425Z,102232.22
2023-10-06T01:50:50.691Z,102223.78
2023-10-06T01:55:53.424Z,102218.94
2023-10-06T02:00:55.111Z,102203.31
2023-10-06T02:05:56.631Z,102213.56
2023-10-06T02:10:58.175Z,102209.44
2023-10-06T02:16:00.211Z,102199.81
2023-10-06T02:21:05.331Z,102195.16
2023-10-06T02:26:15.429Z,102187.78
2023-10-06T02:31:22.579Z,102182.28
2023-10-06T02:36:24.619Z,102179.72
2023-10-06T02:41:28.895Z,102178.50
2023-10-06T02:46:30.906Z,102169.22
2023-10-06T02:51:41.445Z,102163.59
2023-10-06T02:56:45.229Z,102153.59
2023-10-06T03:01:52.643Z,102147.09
2023-10-06T03:06:58.861Z,102151.56
2023-10-06T03:12:01.127Z,102137.78
2023-10-06T03:17:02.771Z,102149.31
2023-10-06T03:22:07.765Z,102134.53
2023-10-06T03:27:14.619Z,102136.25
2023-10-06T03:32:24.103Z,102129.53
2023-10-06T03:37:51.884Z,102135.09
2023-10-06T03:42:57.732Z,102142.97
2023-10-06T03:48:09.671Z,102126.66
2023-10-06T03:53:13.716Z,102120.66
2023-10-06T03:58:17.377Z,102117.06
2023-10-06T04:03:20.165Z,102121.53
2023-10-06T04:08:22.766Z,102113.16
2023-10-06T04:13:25.325Z,102105.91
2023-10-06T04:18:26.877Z,102098.38
2023-10-06T04:23:28.433Z,102104.91
2023-10-06T04:28:30.016Z,102097.66
2023-10-06T04:33:31.571Z,102109.00
2023-10-06T04:38:33.076Z,102099.19
2023-10-06T04:43:35.437Z,102097.66
2023-10-06T04:48:37.293Z,102099.50
2023-10-06T04:53:39.437Z,102094.91
2023-10-06T04:58:41.492Z,102073.91
2023-10-06T05:03:47.084Z,102065.84
2023-10-06T05:08:50.396Z,102069.28
2023-10-06T05:13:55.322Z,102076.16
2023-10-06T05:18:57.024Z,102070.53
2023-10-06T05:23:58.675Z,102072.91
2023-10-06T05:29:00.309Z,102070.69
2023-10-06T05:34:01.834Z,102069.53
2023-10-06T05:39:04.268Z,102068.63
2023-10-06T05:44:08.436Z,102070.38
2023-10-06T05:49:12.381Z,102072.09
2023-10-06T05:54:20.128Z,102069.84
2023-10-06T05:59:22.828Z,102059.34
2023-10-06T06:04:28.653Z,102062.78
2023-10-06T06:09:31.590Z,102065.53
2023-10-06T06:14:33.445Z,102073.78
2023-10-06T06:19:35.010Z,102075.66
2023-10-06T06:24:39.182Z,102078.09
2023-10-06T06:29:40.773Z,102077.59
2023-10-06T06:34:43.143Z,102092.88
2023-10-06T06:39:45.719Z,102085.03
2023-10-06T06:44:49.397Z,102084.38
2023-10-06T06:49:51.174Z,102091.94
2023-10-06T06:54:52.606Z,102085.75
2023-10-06T06:59:54.167Z,102099.34
2023-10-06T07:04:56.425Z,102099.88
2023-10-06T07:09:57.919Z,102091.97
2023-10-06T07:14:59.451Z,102106.44
2023-10-06T07:20:02.024Z,102105.22
2023-10-06T07:25:05.491Z,102093.03
2023-10-06T07:30:11.155Z,102096.31
2023-10-06T07:35:15.128Z,102104.06
2023-10-06T07:40:22.523Z,102083.41
2023-10-06T07:45:27.846Z,102083.09
2023-10-06T07:50:34.369Z,102099.09
2023-10-06T07:55:35.901Z,102104.22
2023-10-06T08:00:40.282Z,102118.34
2023-10-06T08:05:42.314Z,102113.34
2023-10-06T08:10:43.852Z,102114.41
2023-10-06T08:15:46.325Z,102124.72
2023-10-06T08:20:48.049Z,102116.44
2023-10-06T08:31:00.106Z,102116.28
2023-10-06T08:36:03.021Z,102113.88
2023-10-06T08:41:05.836Z,102117.97
2023-10-06T08:46:08.297Z,102119.84
2023-10-06T08:51:15.267Z,102135.47
2023-10-06T08:56:17.020Z,102128.19
2023-10-06T09:01:19.669Z,102135.56
2023-10-06T09:06:21.166Z,102120.00
2023-10-06T09:11:41.992Z,102119.75
2023-10-06T09:16:51.061Z,102131.94
2023-10-06T09:22:03.571Z,102134.09
2023-10-06T09:27:21.244Z,102126.81
2023-10-06T09:32:24.922Z,102112.31
2023-10-06T09:37:26.418Z,102094.03
2023-10-06T09:42:32.299Z,102110.38
2023-10-06T09:47:44.099Z,102101.16
2023-10-06T09:52:48.424Z,102102.31
2023-10-06T09:57:51.181Z,102105.19
2023-10-06T10:02:54.253Z,102106.97
2023-10-06T10:07:56.255Z,102095.13
2023-10-06T10:13:09.112Z,102104.31
2023-10-06T10:18:30.667Z,102095.47
2023-10-06T10:23:32.507Z,102089.66
2023-10-06T10:28:34.496Z,102090.44
2023-10-06T10:33:39.016Z,102098.50
2023-10-06T10:38:45.378Z,102087.91
2023-10-06T10:43:50.029Z,102097.25
2023-10-06T10:48:53.856Z,102092.09
2023-10-06T10:53:55.373Z,102077.91
2023-10-06T10:58:57.773Z,102078.53
2023-10-06T11:04:13.962Z,102071.56
2023-10-06T11:09:38.116Z,102075.84
2023-10-06T11:14:42.129Z,102081.34
2023-10-06T11:19:43.660Z,102080.56
2023-10-06T11:24:46.251Z,102073.25
2023-10-06T11:29:47.765Z,102058.41
2023-10-06T11:34:50.524Z,102048.69
2023-10-06T11:39:58.307Z,102042.41
2023-10-06T11:45:01.291Z,102052.50
2023-10-06T11:50:04.881Z,102047.63
2023-10-06T11:55:10.308Z,102045.19
2023-10-06T12:00:13.539Z,102039.09
2023-10-06T12:05:15.584Z,102045.56
2023-10-06T12:10:22.106Z,102048.72
2023-10-06T12:15:23.596Z,102023.25
2023-10-06T12:20:25.864Z,102036.53
2023-10-06T12:25:28.201Z,102024.47
2023-10-06T12:30:29.809Z,102020.22
2023-10-06T12:35:31.713Z,102026.28
2023-10-06T12:40:33.250Z,102015.00
2023-10-06T12:45:34.750Z,102015.13
2023-10-06T12:50:42.000Z,102011.31
2023-10-06T12:55:44.344Z,102023.50
2023-10-06T13:00:46.012Z,102023.25
2023-10-06T13:05:48.176Z,102028.69
2023-10-06T13:10:49.909Z,102031.34
2023-10-06T13:15:51.601Z,102021.31
2023-10-06T13:20:53.585Z,102015.66
2023-10-06T13:25:56.965Z,102014.34
2023-10-06T13:30:58.513Z,102007.44
2023-10-06T13:36:01.623Z,102001.38
2023-10-06T13:41:06.148Z,102012.00
2023-10-06T13:46:07.724Z,101997.69
2023-10-06T13:51:10.421Z,102003.31
2023-10-06T13:56:12.171Z,101999.00
2023-10-06T14:01:13.903Z,102009.56
2023-10-06T14:06:15.723Z,101991.13
2023-10-06T14:11:17.893Z,101984.22
2023-10-06T14:16:28.694Z,101992.63
2023-10-06T14:21:31.518Z,101975.06
2023-10-06T14:26:33.291Z,101979.19
2023-10-06T14:31:48.859Z,101991.03
2023-10-06T14:36:58.553Z,101986.34
2023-10-06T14:42:18.394Z,101991.59
2023-10-06T14:47:19.926Z,101994.09
2023-10-06T14:52:24.268Z,102001.72
2023-10-06T14:57:27.804Z,101990.81
2023-10-06T15:02:29.419Z,101993.06
2023-10-06T15:07:30.934Z,101999.44
2023-10-06T15:12:32.628Z,101988.84
2023-10-06T15:17:36.061Z,101995.34
2023-10-06T15:22:37.885Z,102004.06
2023-10-06T15:27:39.415Z,101987.09
2023-10-06T15:32:41.064Z,101999.22
2023-10-06T15:37:42.577Z,101994.06
2023-10-06T15:43:13.134Z,101989.78
2023-10-06T15:48:24.472Z,101990.09
2023-10-06T15:53:31.872Z,102003.25
2023-10-06T15:58:34.023Z,102000.22
2023-10-06T16:03:36.398Z,101996.72
2023-10-06T16:08:39.408Z,101995.38
2023-10-06T16:13:46.189Z,101984.69
2023-10-06T16:18:52.636Z,101984.22
2023-10-06T16:23:54.126Z,101975.84
2023-10-06T16:28:55.861Z,101990.25
2023-10-06T16:33:58.211Z,102001.31
2023-10-06T16:39:00.407Z,101990.34
2023-10-06T16:44:03.194Z,101979.53
2023-10-06T16:49:07.637Z,101990.78
2023-10-06T16:54:11.514Z,101985.34
2023-10-06T16:59:14.297Z,101983.34
2023-10-06T17:04:19.325Z,101972.66
2023-10-06T17:09:26.100Z,101982.56
2023-10-06T17:14:27.707Z,101998.28
2023-10-06T17:19:29.825Z,101990.41
2023-10-06T17:24:32.184Z,101989.06
2023-10-06T17:29:34.278Z,101984.75
2023-10-06T17:34:35.833Z,101982.75
2023-10-06T17:39:37.576Z,101992.94
2023-10-06T17:44:42.735Z,101994.56
2023-10-06T17:49:45.697Z,101999.88
2023-10-06T17:54:47.597Z,102003.28
2023-10-06T17:59:50.529Z,101989.88
2023-10-06T18:04:52.390Z,101986.63
2023-10-06T18:09:54.668Z,101984.63
2023-10-06T18:14:56.260Z,101983.28
2023-10-06T18:19:57.836Z,101982.78
2023-10-06T18:24:59.273Z,101985.59
2023-10-06T18:30:00.876Z,101989.81
2023-10-06T18:35:05.226Z,101987.09
2023-10-06T18:40:07.358Z,101998.63
2023-10-06T18:45:10.986Z,102003.31
2023-10-06T18:50:22.657Z,101996.03
2023-10-06T18:55:24.656Z,101992.81
2023-10-06T19:00:27.413Z,101973.66
2023-10-06T19:05:28.937Z,101971.47
2023-10-06T19:10:30.476Z,101972.84
2023-10-06T19:15:32.863Z,101972.19
2023-10-06T19:20:34.414Z,101974.94
2023-10-06T19:25:45.304Z,101977.69
2023-10-06T19:30:55.731Z,101968.56
2023-10-06T19:36:09.089Z,101964.56
2023-10-06T19:41:15.829Z,101955.81
2023-10-06T19:46:17.602Z,101957.53
2023-10-06T19:51:19.309Z,101969.63
2023-10-06T19:56:25.215Z,101964.94
2023-10-06T20:01:26.914Z,101966.34
2023-10-06T20:06:28.510Z,101962.75
2023-10-06T20:11:29.972Z,101956.38
2023-10-06T20:16:31.483Z,101963.25
2023-10-06T20:21:33.312Z,101963.59
2023-10-06T20:26:34.893Z,101963.78
2023-10-06T20:31:39.319Z,101970.31
2023-10-06T20:36:41.080Z,101973.97
2023-10-06T20:41:43.461Z,101984.81
2023-10-06T20:46:45.152Z,101995.16
2023-10-06T20:51:49.758Z,101980.03
2023-10-06T20:56:52.796Z,101991.06
2023-10-06T21:01:54.293Z,101980.38
2023-10-06T21:06:55.929Z,101984.00
2023-10-06T21:11:57.519Z,101975.94
2023-10-06T21:16:59.031Z,101974.38
2023-10-06T21:22:00.630Z,101969.06
2023-10-06T21:27:02.292Z,101971.47
2023-10-06T21:32:04.135Z,101975.22
2023-10-06T21:37:05.646Z,101973.31
2023-10-06T21:42:07.124Z,101966.28
2023-10-06T21:47:08.713Z,101974.75
2023-10-06T21:52:13.603Z,101966.97
2023-10-06T21:57:15.119Z,101955.94
2023-10-06T22:02:16.720Z,101950.06
2023-10-06T22:07:18.292Z,101949.69
2023-10-06T22:12:19.896Z,101940.38
2023-10-06T22:17:21.587Z,101950.34
2023-10-06T22:22:23.168Z,101947.25
2023-10-06T22:27:24.774Z,101932.75
2023-10-06T22:32:27.313Z,101936.22
2023-10-06T22:37:30.805Z,101933.44
2023-10-06T22:42:32.379Z,101932.41
2023-10-06T22:47:33.956Z,101928.03
2023-10-06T22:52:36.512Z,101937.19
2023-10-06T22:57:39.620Z,101927.84
2023-10-06T23:02:43.777Z,101928.03
2023-10-06T23:07:47.967Z,101917.44
2023-10-06T23:12:52.558Z,101911.06
2023-10-06T23:17:57.498Z,101917.44
2023-10-06T23:22:59.770Z,101913.69
2023-10-06T23:28:01.384Z,101906.63
2023-10-06T23:33:02.947Z,101909.41
2023-10-06T23:38:12.733Z,101926.63
2023-10-06T23:43:16.939Z,101916.97
2023-10-06T23:48:18.562Z,101913.28
2023-10-06T23:53:24.039Z,101908.91
2023-10-06T23:58:25.650Z,101900.06
